createdAt,value
2023-02-22T00:03:01.260Z,9.80
2023-02-22T00:06:06.221Z,11.00
2023-02-22T00:09:12.776Z,10.20
2023-02-22T00:12:15.604Z,9.20
2023-02-22T00:15:21.184Z,9.00
2023-02-22T00:18:24.796Z,13.80
2023-02-22T00:21:27.526Z,9.90
2023-02-22T00:24:32.839Z,8.50
2023-02-22T00:27:36.544Z,10.50
2023-02-22T00:30:39.386Z,10.00
2023-02-22T00:33:42.721Z,10.00
2023-02-22T00:36:48.754Z,11.80
2023-02-22T00:39:52.296Z,8.90
2023-02-22T00:42:55.011Z,10.50
2023-02-22T00:45:58.184Z,11.30
2023-02-22T00:49:01.174Z,10.50
2023-02-22T00:52:04.890Z,10.20
2023-02-22T00:55:10.806Z,10.30
2023-02-22T00:58:13.534Z,10.00
2023-02-22T01:01:16.785Z,9.90
2023-02-22T01:04:20.160Z,9.60
2023-02-22T01:07:23.213Z,11.10
2023-02-22T01:10:28.538Z,10.20
2023-02-22T01:13:31.610Z,11.80
2023-02-22T01:16:36.546Z,11.20
2023-02-22T01:19:42.583Z,9.80
2023-02-22T01:22:47.769Z,11.20
2023-02-22T01:25:50.497Z,10.30
2023-02-22T01:28:53.337Z,10.70
2023-02-22T01:31:57.077Z,10.50
2023-02-22T01:34:59.902Z,10.60
2023-02-22T01:38:03.088Z,10.60
2023-02-22T01:41:06.478Z,10.80
2023-02-22T01:44:20.093Z,10.40
2023-02-22T01:47:22.824Z,13.40
2023-02-22T01:50:26.599Z,10.50
2023-02-22T01:53:45.344Z,12.40
2023-02-22T01:57:12.300Z,12.60
2023-02-22T02:00:21.136Z,13.60
2023-02-22T02:03:29.630Z,13.00
2023-02-22T02:06:34.962Z,12.20
2023-02-22T02:09:57.621Z,12.30
2023-02-22T02:13:04.052Z,11.20
2023-02-22T02:16:07.204Z,12.30
2023-02-22T02:19:18.930Z,10.70
2023-02-22T02:22:43.302Z,11.70
2023-02-22T02:26:14.324Z,11.50
2023-02-22T02:29:48.477Z,10.50
2023-02-22T02:33:14.646Z,15.70
2023-02-22T02:36:26.050Z,11.50
2023-02-22T02:39:36.204Z,16.60
2023-02-22T02:42:45.794Z,10.40
2023-02-22T02:45:54.524Z,18.40
2023-02-22T02:49:11.222Z,12.80
2023-02-22T02:52:16.781Z,11.50
2023-02-22T02:55:20.298Z,10.40
2023-02-22T02:58:23.898Z,10.50
2023-02-22T03:01:43.668Z,9.90
2023-02-22T03:05:14.499Z,9.20
2023-02-22T03:08:27.335Z,10.10
2023-02-22T03:11:41.890Z,13.00
2023-02-22T03:15:22.424Z,12.10
2023-02-22T03:18:33.497Z,10.60
2023-02-22T03:22:14.147Z,14.20
2023-02-22T03:25:34.273Z,9.40
2023-02-22T03:28:41.106Z,9.90
2023-02-22T03:31:52.296Z,12.30
2023-02-22T03:35:04.491Z,12.70
2023-02-22T03:38:15.194Z,11.10
2023-02-22T03:41:25.982Z,22.50
2023-02-22T03:44:33.071Z,16.60
2023-02-22T03:47:44.707Z,9.50
2023-02-22T03:50:49.849Z,9.50
2023-02-22T03:53:54.498Z,16.30
2023-02-22T03:57:22.769Z,8.90
2023-02-22T04:00:30.977Z,9.80
2023-02-22T04:03:33.762Z,9.20
2023-02-22T04:06:37.966Z,9.60
2023-02-22T04:09:41.113Z,9.10
2023-02-22T04:12:45.744Z,8.50
2023-02-22T04:15:49.940Z,8.30
2023-02-22T04:18:53.755Z,8.70
2023-02-22T04:21:56.499Z,9.90
2023-02-22T04:25:01.486Z,10.20
2023-02-22T04:28:04.788Z,8.50
2023-02-22T04:31:21.310Z,8.60
2023-02-22T04:34:25.357Z,9.00
2023-02-22T04:37:28.293Z,10.10
2023-02-22T04:40:32.333Z,8.50
2023-02-22T04:43:35.208Z,7.70
2023-02-22T04:46:46.947Z,8.80
2023-02-22T04:49:51.341Z,8.00
2023-02-22T04:52:59.318Z,8.90
2023-02-22T04:56:02.536Z,8.80
2023-02-22T04:59:05.470Z,8.80
2023-02-22T05:02:08.439Z,8.60
2023-02-22T05:05:11.203Z,9.40
2023-02-22T05:08:13.930Z,8.70
2023-02-22T05:11:16.926Z,8.50
2023-02-22T05:14:20.109Z,9.50
2023-02-22T05:17:23.138Z,9.70
2023-02-22T05:20:31.541Z,10.70
2023-02-22T05:23:34.504Z,11.60
2023-02-22T05:26:37.241Z,11.60
2023-02-22T05:29:40.239Z,11.60
2023-02-22T05:32:42.965Z,11.70
2023-02-22T05:35:46.466Z,10.40
2023-02-22T05:38:49.385Z,12.00
2023-02-22T05:41:52.179Z,11.90
2023-02-22T05:44:55.325Z,12.90
2023-02-22T05:47:58.541Z,13.30
2023-02-22T05:51:01.444Z,13.80
2023-02-22T05:54:04.430Z,14.50
2023-02-22T05:57:08.184Z,12.90
2023-02-22T06:00:16.613Z,11.60
2023-02-22T06:03:19.492Z,10.00
2023-02-22T06:06:22.646Z,9.80
2023-02-22T06:09:25.460Z,9.00
2023-02-22T06:12:28.269Z,7.60
2023-02-22T06:15:31.518Z,8.00
2023-02-22T06:18:34.258Z,7.10
2023-02-22T06:21:37.071Z,7.00
2023-02-22T06:24:39.840Z,6.40
2023-02-22T06:27:43.008Z,5.80
2023-02-22T06:30:46.188Z,6.90
2023-02-22T06:33:49.005Z,5.40
2023-02-22T06:36:51.823Z,6.00
2023-02-22T06:39:54.603Z,5.70
2023-02-22T06:42:58.545Z,5.60
2023-02-22T06:46:01.309Z,5.20
2023-02-22T06:49:04.989Z,5.70
2023-02-22T06:52:09.253Z,5.60
2023-02-22T06:55:11.984Z,5.60
2023-02-22T06:58:16.995Z,5.00
2023-02-22T07:01:20.211Z,4.30
2023-02-22T07:04:23.222Z,2.80
2023-02-22T07:07:25.984Z,3.90
2023-02-22T07:10:31.064Z,3.50
2023-02-22T07:13:33.829Z,4.40
2023-02-22T07:16:36.665Z,4.50
2023-02-22T07:19:39.575Z,4.20
2023-02-22T07:22:42.363Z,4.30
2023-02-22T07:25:45.195Z,4.30
2023-02-22T07:28:48.172Z,4.00
2023-02-22T07:31:51.214Z,5.00
2023-02-22T07:34:54.054Z,4.20
2023-02-22T07:37:56.908Z,4.20
2023-02-22T07:40:59.697Z,4.90
2023-02-22T07:44:02.534Z,4.40
2023-02-22T07:47:05.432Z,4.40
2023-02-22T07:50:08.466Z,4.70
2023-02-22T07:53:23.712Z,4.90
2023-02-22T07:56:26.464Z,4.30
2023-02-22T07:59:29.232Z,4.40
2023-02-22T08:02:32.122Z,4.20
2023-02-22T08:05:37.167Z,4.90
2023-02-22T08:08:40.563Z,4.40
2023-02-22T08:11:43.265Z,4.50
2023-02-22T08:14:46.054Z,4.80
2023-02-22T08:17:48.830Z,5.10
2023-02-22T08:20:53.354Z,4.30
2023-02-22T08:23:56.221Z,3.70
2023-02-22T08:26:58.951Z,3.90
2023-02-22T08:30:01.894Z,5.40
2023-02-22T08:33:06.105Z,5.90
2023-02-22T08:36:09.441Z,5.50
2023-02-22T08:39:12.166Z,5.70
2023-02-22T08:42:15.044Z,5.50
2023-02-22T08:45:18.152Z,5.50
2023-02-22T08:48:21.553Z,5.20
2023-02-22T08:51:27.509Z,5.70
2023-02-22T08:54:30.674Z,5.80
2023-02-22T08:57:33.447Z,5.10
2023-02-22T09:00:40.143Z,6.40
2023-02-22T09:03:42.969Z,5.40
2023-02-22T09:06:51.801Z,5.50
2023-02-22T09:09:54.743Z,5.20
2023-02-22T09:13:00.736Z,6.10
2023-02-22T09:16:03.859Z,5.10
2023-02-22T09:19:06.598Z,5.20
2023-02-22T09:22:11.634Z,4.70
2023-02-22T09:25:16.990Z,5.00
2023-02-22T09:28:20.036Z,4.10
2023-02-22T09:31:24.402Z,4.10
2023-02-22T09:34:29.809Z,3.50
2023-02-22T09:37:32.733Z,3.90
2023-02-22T09:40:45.074Z,3.50
2023-02-22T09:44:15.556Z,3.10
2023-02-22T09:47:40.488Z,4.80
2023-02-22T09:50:47.008Z,4.40
2023-02-22T09:53:53.937Z,4.30
2023-02-22T10:00:13.756Z,5.30
2023-02-22T10:03:25.827Z,4.40
2023-02-22T10:06:30.116Z,5.50
2023-02-22T10:09:42.609Z,5.50
2023-02-22T10:13:27.558Z,5.90
2023-02-22T10:16:43.378Z,5.00
2023-02-22T10:19:54.693Z,5.20
2023-02-22T10:23:28.642Z,5.00
2023-02-22T10:26:42.736Z,4.80
2023-02-22T10:30:15.572Z,4.10
2023-02-22T10:33:48.449Z,4.90
2023-02-22T10:36:59.396Z,4.90
2023-02-22T10:40:20.456Z,4.20
2023-02-22T10:43:25.266Z,4.90
2023-02-22T10:46:29.335Z,5.10
2023-02-22T10:49:46.277Z,6.60
2023-02-22T10:52:49.518Z,4.80
2023-02-22T10:56:19.027Z,3.20
2023-02-22T10:59:33.660Z,2.60
2023-02-22T11:02:36.503Z,3.20
2023-02-22T11:05:41.281Z,2.50
2023-02-22T11:08:46.509Z,4.80
2023-02-22T11:12:07.333Z,5.00
2023-02-22T11:15:29.529Z,2.70
2023-02-22T11:18:35.614Z,2.90
2023-02-22T11:21:40.260Z,3.40
2023-02-22T11:28:06.292Z,3.30
2023-02-22T11:31:15.041Z,2.70
2023-02-22T11:34:42.804Z,3.80
2023-02-22T11:41:04.748Z,5.50
2023-02-22T11:44:28.937Z,3.90
2023-02-22T11:47:32.995Z,4.80
2023-02-22T11:50:46.615Z,6.20
2023-02-22T11:54:22.596Z,7.70
2023-02-22T11:58:04.736Z,7.30
2023-02-22T12:01:29.184Z,6.20
2023-02-22T12:04:48.247Z,5.60
2023-02-22T12:08:13.864Z,5.10
2023-02-22T12:11:44.516Z,6.50
2023-02-22T12:15:13.960Z,6.00
2023-02-22T12:18:42.596Z,5.40
2023-02-22T12:21:53.204Z,4.60
2023-02-22T12:25:10.331Z,5.70
2023-02-22T12:28:25.595Z,7.50
2023-02-22T12:31:36.733Z,7.20
2023-02-22T12:34:51.346Z,6.60
2023-02-22T12:38:09.558Z,6.90
2023-02-22T12:41:33.590Z,6.60
2023-02-22T12:44:44.545Z,7.60
2023-02-22T12:47:58.472Z,7.10
2023-02-22T12:51:13.801Z,7.30
2023-02-22T12:54:21.465Z,9.60
2023-02-22T12:57:24.352Z,9.50
2023-02-22T13:00:36.100Z,9.40
2023-02-22T13:03:42.279Z,9.10
2023-02-22T13:07:08.271Z,9.50
2023-02-22T13:10:33.882Z,9.20
2023-02-22T13:13:57.353Z,8.60
2023-02-22T13:17:26.254Z,7.40
2023-02-22T13:20:37.629Z,7.20
2023-02-22T13:23:55.587Z,7.00
2023-02-22T13:27:08.756Z,6.50
2023-02-22T13:30:23.389Z,6.80
2023-02-22T13:33:31.868Z,6.80
2023-02-22T13:36:54.292Z,6.30
2023-02-22T13:40:16.918Z,6.40
2023-02-22T13:43:32.199Z,6.20
2023-02-22T13:46:50.439Z,6.00
2023-02-22T13:50:00.492Z,6.80
2023-02-22T13:53:15.238Z,6.00
2023-02-22T13:56:20.474Z,6.00
2023-02-22T13:59:36.356Z,6.10
2023-02-22T14:02:57.798Z,6.50
2023-02-22T14:06:01.489Z,6.60
2023-02-22T14:09:10.182Z,6.00
2023-02-22T14:12:34.925Z,6.30
2023-02-22T14:15:57.932Z,6.40
2023-02-22T14:19:23.491Z,6.60
2023-02-22T14:22:29.833Z,6.60
2023-02-22T14:25:35.124Z,7.90
2023-02-22T14:28:50.679Z,7.00
2023-02-22T14:31:58.260Z,7.10
2023-02-22T14:35:09.635Z,7.00
2023-02-22T14:38:20.964Z,7.70
2023-02-22T14:41:27.814Z,8.50
2023-02-22T14:44:37.346Z,8.30
2023-02-22T14:47:49.606Z,8.50
2023-02-22T14:51:20.299Z,9.00
2023-02-22T14:54:51.945Z,7.80
2023-02-22T14:58:09.912Z,7.60
2023-02-22T15:01:44.414Z,8.60
2023-02-22T15:04:52.444Z,8.50
2023-02-22T15:08:02.171Z,9.60
2023-02-22T15:14:26.707Z,11.40
2023-02-22T15:17:29.852Z,10.90
2023-02-22T15:20:36.824Z,10.90
2023-02-22T15:23:52.269Z,10.80
2023-02-22T15:27:02.492Z,11.40
2023-02-22T15:30:18.027Z,13.30
2023-02-22T15:33:24.350Z,12.80
2023-02-22T15:36:31.228Z,13.70
2023-02-22T15:42:49.042Z,11.70
2023-02-22T15:45:52.315Z,11.70
2023-02-22T15:49:19.515Z,12.00
2023-02-22T15:52:26.502Z,12.60
2023-02-22T15:55:33.665Z,13.80
2023-02-22T15:58:39.039Z,14.20
2023-02-22T16:01:45.199Z,13.10
2023-02-22T16:04:59.060Z,14.40
2023-02-22T16:08:02.402Z,17.00
2023-02-22T16:11:15.048Z,13.30
2023-02-22T16:14:35.995Z,12.10
2023-02-22T16:17:59.782Z,11.60
2023-02-22T16:21:14.014Z,13.10
2023-02-22T16:24:30.543Z,12.40
2023-02-22T16:27:47.775Z,11.90
2023-02-22T16:34:01.007Z,11.90
2023-02-22T16:37:04.149Z,13.10
2023-02-22T16:40:13.959Z,12.50
2023-02-22T16:43:20.213Z,13.90
2023-02-22T16:46:23.186Z,12.80
2023-02-22T16:49:26.924Z,12.30
2023-02-22T16:52:29.803Z,13.30
2023-02-22T16:55:33.345Z,12.50
2023-02-22T16:58:39.391Z,12.80
2023-02-22T17:01:42.942Z,13.60
2023-02-22T17:04:52.151Z,13.30
2023-02-22T17:07:55.841Z,13.00
2023-02-22T17:11:00.828Z,13.00
2023-02-22T17:14:04.263Z,13.40
2023-02-22T17:17:09.182Z,11.80
2023-02-22T17:20:12.086Z,12.70
2023-02-22T17:23:14.851Z,10.40
2023-02-22T17:26:18.138Z,14.40
2023-02-22T17:29:21.125Z,13.40
2023-02-22T17:32:24.143Z,14.20
2023-02-22T17:35:29.642Z,14.30
2023-02-22T17:38:32.444Z,14.60
2023-02-22T17:41:35.233Z,15.00
2023-02-22T17:44:37.968Z,14.70
2023-02-22T17:47:43.283Z,13.80
2023-02-22T17:50:49.454Z,14.70
2023-02-22T17:53:52.417Z,14.90
2023-02-22T18:00:23.343Z,13.00
2023-02-22T18:03:27.325Z,15.90
2023-02-22T18:06:32.728Z,17.30
2023-02-22T18:09:36.754Z,14.90
2023-02-22T18:12:40.221Z,17.30
2023-02-22T18:15:43.408Z,15.50
2023-02-22T18:18:46.236Z,13.40
2023-02-22T18:21:49.331Z,11.90
2023-02-22T18:24:57.708Z,12.80
2023-02-22T18:28:06.204Z,12.80
2023-02-22T18:31:15.530Z,11.70
2023-02-22T18:34:18.754Z,11.90
2023-02-22T18:37:21.716Z,12.60
2023-02-22T18:40:24.506Z,13.40
2023-02-22T18:43:28.133Z,12.70
2023-02-22T18:46:31.030Z,13.10
2023-02-22T18:49:34.224Z,12.20
2023-02-22T18:52:46.372Z,12.70
2023-02-22T18:55:49.098Z,11.80
2023-02-22T18:58:58.605Z,11.80
2023-02-22T19:02:01.907Z,10.70
2023-02-22T19:05:06.327Z,10.30
2023-02-22T19:08:11.494Z,10.20
